createdAt,value
2019-03-03T00:00:59.940Z,9.50
2019-03-03T00:03:28.544Z,9.40
2019-03-03T00:05:57.163Z,9.20
2019-03-03T00:08:25.681Z,9.20
2019-03-03T00:10:54.404Z,9.10
2019-03-03T00:13:23.184Z,8.80
2019-03-03T00:15:52.015Z,8.90
2019-03-03T00:18:20.662Z,9.10
2019-03-03T00:21:07.659Z,9.20
2019-03-03T00:23:38.154Z,9.20
2019-03-03T00:26:06.930Z,9.20
2019-03-03T00:28:35.764Z,9.20
2019-03-03T00:31:04.513Z,9.00
2019-03-03T00:33:33.312Z,8.90
2019-03-03T00:36:02.077Z,8.90
2019-03-03T00:38:48.847Z,9.00
2019-03-03T00:41:37.720Z,8.90
2019-03-03T00:44:22.233Z,8.90
2019-03-03T00:47:10.255Z,8.80
2019-03-03T00:49:56.390Z,8.80
2019-03-03T00:52:38.241Z,9.00
2019-03-03T00:55:16.323Z,8.80
2019-03-03T00:58:04.093Z,8.70
2019-03-03T01:01:07.152Z,8.70
2019-03-03T01:03:47.583Z,8.60
2019-03-03T01:06:28.861Z,8.80
2019-03-03T01:09:14.871Z,8.90
2019-03-03T01:11:58.301Z,8.80
2019-03-03T01:14:44.811Z,8.60
2019-03-03T01:17:51.410Z,8.60
2019-03-03T01:20:48.145Z,8.40
2019-03-03T01:23:48.153Z,8.60
2019-03-03T01:26:16.699Z,8.70
2019-03-03T01:28:45.367Z,8.70
2019-03-03T01:31:14.144Z,8.50
2019-03-03T01:33:42.942Z,8.40
2019-03-03T01:36:11.761Z,8.50
2019-03-03T01:38:40.684Z,8.20
2019-03-03T01:41:09.512Z,8.30
2019-03-03T01:43:38.036Z,8.40
2019-03-03T01:46:06.832Z,8.00
2019-03-03T01:48:35.368Z,8.10
2019-03-03T01:51:04.240Z,8.30
2019-03-03T01:53:32.886Z,8.30
2019-03-03T01:56:01.618Z,8.20
2019-03-03T01:58:30.190Z,8.20
2019-03-03T02:00:59.013Z,8.20
2019-03-03T02:03:27.955Z,8.20
2019-03-03T02:05:56.721Z,8.30
2019-03-03T02:08:25.415Z,8.20
2019-03-03T02:10:54.298Z,8.20
2019-03-03T02:13:23.292Z,8.40
2019-03-03T02:15:52.011Z,8.40
2019-03-03T02:18:20.689Z,8.50
2019-03-03T02:20:49.337Z,8.60
2019-03-03T02:23:18.099Z,8.20
2019-03-03T02:25:47.772Z,8.20
2019-03-03T02:28:16.497Z,8.30
2019-03-03T02:30:45.350Z,8.20
2019-03-03T02:33:14.356Z,7.80
2019-03-03T02:35:42.981Z,7.70
2019-03-03T02:38:11.696Z,7.60
2019-03-03T02:40:40.400Z,7.80
2019-03-03T02:43:09.183Z,7.60
2019-03-03T02:45:37.897Z,7.60
2019-03-03T02:48:06.563Z,7.60
2019-03-03T02:50:35.189Z,7.50
2019-03-03T02:53:03.843Z,7.70
2019-03-03T02:55:32.607Z,7.70
2019-03-03T02:58:01.164Z,7.70
2019-03-03T03:00:29.895Z,7.90
2019-03-03T03:02:59.895Z,8.00
2019-03-03T03:05:46.605Z,7.90
2019-03-03T03:08:22.399Z,7.70
2019-03-03T03:11:28.745Z,7.70
2019-03-03T03:14:06.091Z,7.80
2019-03-03T03:17:09.287Z,7.50
2019-03-03T03:19:48.673Z,7.30
2019-03-03T03:22:36.866Z,7.50
2019-03-03T03:25:28.688Z,7.60
2019-03-03T03:28:11.770Z,7.70
2019-03-03T03:30:54.876Z,7.80
2019-03-03T03:33:41.510Z,7.70
2019-03-03T03:36:18.958Z,7.70
2019-03-03T03:39:06.890Z,7.90
2019-03-03T03:41:44.115Z,7.60
2019-03-03T03:44:38.339Z,7.60
2019-03-03T03:47:28.778Z,7.80
2019-03-03T03:50:15.451Z,8.10
2019-03-03T03:53:15.126Z,7.90
2019-03-03T03:56:06.069Z,7.80
2019-03-03T03:58:54.105Z,7.60
2019-03-03T04:01:40.936Z,7.80
2019-03-03T04:04:32.345Z,7.70
2019-03-03T04:07:08.861Z,7.50
2019-03-03T04:09:42.402Z,7.60
2019-03-03T04:12:33.523Z,7.70
2019-03-03T04:15:24.446Z,7.90
2019-03-03T04:18:21.894Z,7.80
2019-03-03T04:21:05.887Z,7.90
2019-03-03T04:23:52.608Z,8.10
2019-03-03T04:26:44.919Z,8.10
2019-03-03T04:29:38.596Z,8.20
2019-03-03T04:32:26.707Z,8.00
2019-03-03T04:35:32.996Z,8.10
2019-03-03T04:38:26.984Z,7.90
2019-03-03T04:43:26.230Z,8.10
2019-03-03T04:46:17.686Z,8.10
2019-03-03T04:49:07.392Z,8.30
2019-03-03T04:51:59.034Z,8.40
2019-03-03T04:54:40.651Z,8.40
2019-03-03T04:57:20.888Z,8.30
2019-03-03T05:00:12.155Z,8.30
2019-03-03T05:03:02.012Z,8.30
2019-03-03T05:05:57.384Z,8.50
2019-03-03T05:08:45.388Z,8.50
2019-03-03T05:12:08.752Z,8.50
2019-03-03T05:14:38.687Z,8.50
2019-03-03T05:17:16.895Z,8.50
2019-03-03T05:19:49.794Z,8.70
2019-03-03T05:22:18.360Z,8.70
2019-03-03T05:24:46.933Z,8.70
2019-03-03T05:27:15.749Z,8.60
2019-03-03T05:29:44.621Z,8.40
2019-03-03T05:32:13.294Z,8.20
2019-03-03T05:34:42.064Z,8.20
2019-03-03T05:37:12.798Z,8.40
2019-03-03T05:39:41.464Z,8.50
2019-03-03T05:42:11.081Z,8.30
2019-03-03T05:44:39.696Z,8.20
2019-03-03T05:47:10.447Z,8.20
2019-03-03T05:49:39.183Z,8.20
2019-03-03T05:52:07.935Z,8.20
2019-03-03T05:54:36.825Z,8.20
2019-03-03T05:57:05.680Z,8.20
2019-03-03T05:59:34.488Z,8.20
2019-03-03T06:02:03.288Z,8.20
2019-03-03T06:04:31.981Z,8.20
2019-03-03T06:07:00.739Z,8.10
2019-03-03T06:09:32.068Z,8.40
2019-03-03T06:12:01.481Z,8.50
2019-03-03T06:14:31.482Z,8.70
2019-03-03T06:17:00.160Z,8.60
2019-03-03T06:19:28.833Z,8.70
2019-03-03T06:21:57.351Z,8.70
2019-03-03T06:24:26.122Z,8.70
2019-03-03T06:26:54.582Z,8.70
2019-03-03T06:29:23.429Z,8.50
2019-03-03T06:31:51.894Z,8.60
2019-03-03T06:34:20.599Z,8.70
2019-03-03T06:36:49.295Z,8.70
2019-03-03T06:39:17.799Z,8.80
2019-03-03T06:41:46.475Z,8.80
2019-03-03T06:44:14.981Z,8.70
2019-03-03T06:46:43.749Z,8.60
2019-03-03T06:49:12.398Z,8.70
2019-03-03T06:51:41.053Z,9.00
2019-03-03T06:54:09.841Z,9.00
2019-03-03T06:56:38.631Z,9.10
2019-03-03T06:59:08.040Z,9.20
2019-03-03T07:01:37.094Z,9.20
2019-03-03T07:04:05.910Z,9.30
2019-03-03T07:06:34.709Z,9.20
2019-03-03T07:09:04.095Z,9.20
2019-03-03T07:11:34.413Z,9.50
2019-03-03T07:14:06.163Z,9.50
2019-03-03T07:16:34.903Z,9.50
2019-03-03T07:19:03.806Z,9.60
2019-03-03T07:21:32.347Z,9.70
2019-03-03T07:24:01.077Z,9.80
2019-03-03T07:26:29.601Z,9.90
2019-03-03T07:28:58.190Z,8.90
2019-03-03T07:31:26.853Z,9.90
2019-03-03T07:33:58.642Z,10.20
2019-03-03T07:36:27.239Z,10.20
2019-03-03T07:38:56.084Z,10.40
2019-03-03T07:41:24.809Z,10.30
2019-03-03T07:43:53.674Z,10.40
2019-03-03T07:46:22.346Z,10.40
2019-03-03T07:48:50.941Z,10.60
2019-03-03T07:51:19.753Z,10.90
2019-03-03T07:53:48.287Z,11.10
2019-03-03T07:56:17.001Z,11.10
2019-03-03T07:58:45.493Z,11.40
2019-03-03T08:01:14.322Z,11.60
2019-03-03T08:03:43.007Z,11.80
2019-03-03T08:06:11.576Z,12.10
2019-03-03T08:08:41.331Z,12.10
2019-03-03T08:11:09.971Z,12.20
2019-03-03T08:13:38.574Z,12.50
2019-03-03T08:16:07.201Z,12.60
2019-03-03T08:18:35.953Z,12.80
2019-03-03T08:21:04.575Z,12.80
2019-03-03T08:23:33.404Z,13.00
2019-03-03T08:26:02.065Z,12.90
2019-03-03T08:28:30.739Z,13.10
2019-03-03T08:30:59.456Z,12.90
2019-03-03T08:33:28.142Z,13.00
2019-03-03T08:35:56.743Z,13.00
2019-03-03T08:38:25.414Z,13.30
2019-03-03T08:40:54.019Z,13.50
2019-03-03T08:43:45.043Z,13.70
2019-03-03T08:46:38.546Z,13.60
2019-03-03T08:49:21.431Z,13.90
2019-03-03T08:52:10.676Z,14.10
2019-03-03T08:55:10.821Z,13.90
2019-03-03T08:58:04.144Z,13.90
2019-03-03T09:00:40.877Z,14.10
2019-03-03T09:03:35.077Z,14.00
2019-03-03T09:06:12.537Z,14.00
2019-03-03T09:09:03.243Z,13.80
2019-03-03T09:11:44.064Z,13.90
2019-03-03T09:14:31.591Z,14.00
2019-03-03T09:17:19.774Z,14.30
2019-03-03T09:20:20.032Z,14.50
2019-03-03T09:23:00.488Z,14.40
2019-03-03T09:25:57.541Z,14.60
2019-03-03T09:28:48.469Z,14.80
2019-03-03T09:31:39.672Z,14.90
2019-03-03T09:34:21.774Z,15.10
2019-03-03T09:37:08.612Z,14.70
2019-03-03T09:39:58.683Z,14.70
2019-03-03T09:42:55.575Z,14.70
2019-03-03T09:45:39.192Z,15.40
2019-03-03T09:48:15.024Z,15.40
2019-03-03T09:51:00.699Z,15.10
2019-03-03T09:53:49.503Z,14.50
2019-03-03T09:56:47.489Z,14.40
2019-03-03T09:59:45.142Z,14.80
2019-03-03T10:02:39.612Z,14.70
2019-03-03T10:05:31.415Z,14.70
2019-03-03T10:08:22.821Z,15.10
2019-03-03T10:11:44.727Z,15.40
2019-03-03T10:14:53.228Z,15.10
2019-03-03T10:18:53.469Z,15.20
2019-03-03T10:22:08.865Z,14.80
2019-03-03T10:25:56.943Z,15.50
2019-03-03T10:29:14.429Z,15.40
2019-03-03T10:33:03.421Z,15.90
2019-03-03T10:36:23.579Z,15.90
2019-03-03T10:39:25.374Z,16.10
2019-03-03T10:42:39.447Z,16.70
2019-03-03T10:46:11.217Z,17.10
2019-03-03T10:50:02.123Z,16.40
2019-03-03T10:53:22.002Z,13.70
2019-03-03T10:56:13.679Z,17.30
2019-03-03T10:59:21.023Z,17.40
2019-03-03T11:02:21.212Z,17.50
2019-03-03T11:05:54.500Z,17.60
2019-03-03T11:09:52.830Z,17.30
2019-03-03T11:12:33.638Z,16.20
2019-03-03T11:15:47.709Z,16.30
2019-03-03T11:19:33.663Z,16.90
2019-03-03T11:23:13.619Z,16.80
2019-03-03T11:26:46.299Z,17.10
2019-03-03T11:30:14.409Z,17.80
2019-03-03T11:34:08.467Z,18.40
2019-03-03T11:37:16.287Z,17.30
2019-03-03T11:41:11.978Z,16.70
2019-03-03T11:44:41.287Z,17.20
2019-03-03T11:47:48.610Z,17.40
2019-03-03T11:50:53.616Z,17.00
2019-03-03T11:54:27.539Z,17.30
2019-03-03T11:58:00.479Z,17.90
2019-03-03T12:01:30.947Z,17.60
2019-03-03T12:04:41.944Z,17.70
2019-03-03T12:07:29.007Z,17.40
2019-03-03T12:10:21.845Z,18.60
2019-03-03T12:13:04.740Z,19.00
2019-03-03T12:16:13.639Z,17.70
2019-03-03T12:19:07.357Z,18.00
2019-03-03T12:22:03.776Z,17.90
2019-03-03T12:25:01.649Z,18.40
2019-03-03T12:28:01.256Z,18.60
2019-03-03T12:30:54.396Z,19.00
2019-03-03T12:33:39.439Z,19.20
2019-03-03T12:36:27.943Z,19.50
2019-03-03T12:39:24.940Z,18.70
2019-03-03T12:42:17.190Z,18.90
2019-03-03T12:45:12.907Z,19.10
2019-03-03T12:48:09.886Z,18.80
2019-03-03T12:51:10.940Z,18.10
2019-03-03T12:54:10.917Z,18.10
2019-03-03T12:57:07.983Z,17.90
2019-03-03T12:59:43.701Z,18.20
2019-03-03T13:02:46.757Z,18.90
2019-03-03T13:05:44.333Z,19.50
2019-03-03T13:08:35.816Z,20.50
2019-03-03T13:11:20.766Z,19.50
2019-03-03T13:14:35.391Z,19.30
2019-03-03T13:17:34.376Z,19.30
2019-03-03T13:20:26.181Z,18.00
2019-03-03T13:26:30.392Z,17.70
2019-03-03T13:29:31.072Z,18.60
2019-03-03T13:32:17.034Z,18.50
2019-03-03T13:35:29.995Z,18.40
2019-03-03T13:38:30.871Z,18.50
2019-03-03T13:41:22.614Z,19.30
2019-03-03T13:43:53.016Z,18.10
2019-03-03T13:46:23.013Z,18.90
2019-03-03T13:48:55.385Z,19.10
2019-03-03T13:51:26.841Z,19.90
2019-03-03T13:53:59.371Z,19.10
2019-03-03T13:56:35.505Z,18.90
2019-03-03T13:59:05.684Z,18.50
2019-03-03T14:01:34.391Z,18.20
2019-03-03T14:04:04.619Z,18.90
2019-03-03T14:06:33.494Z,19.60
2019-03-03T14:09:02.496Z,19.90
2019-03-03T14:11:33.224Z,19.50
2019-03-03T14:14:02.347Z,19.70
2019-03-03T14:16:31.591Z,19.60
2019-03-03T14:19:00.779Z,19.70
2019-03-03T14:21:29.713Z,19.10
2019-03-03T14:23:58.617Z,18.40
2019-03-03T14:26:27.612Z,18.70
2019-03-03T14:28:56.290Z,18.80
2019-03-03T14:31:25.216Z,18.90
2019-03-03T14:33:54.224Z,18.80
2019-03-03T14:36:23.110Z,18.80
2019-03-03T14:38:52.007Z,20.10
2019-03-03T14:41:20.930Z,19.30
2019-03-03T14:43:49.573Z,18.90
2019-03-03T14:46:18.669Z,19.40
2019-03-03T14:48:47.597Z,19.30
2019-03-03T14:51:16.643Z,19.30
2019-03-03T14:53:45.302Z,19.30
2019-03-03T14:56:14.280Z,18.90
2019-03-03T14:58:42.861Z,18.30
2019-03-03T15:01:18.634Z,18.40
2019-03-03T15:03:47.379Z,18.30
2019-03-03T15:06:24.188Z,18.60
2019-03-03T15:08:46.549Z,19.20
2019-03-03T15:11:15.332Z,19.00
2019-03-03T15:13:44.097Z,18.40
2019-03-03T15:16:13.029Z,18.10
2019-03-03T15:18:41.965Z,17.80
2019-03-03T15:21:10.992Z,17.70
2019-03-03T15:23:39.760Z,17.70
2019-03-03T15:26:08.500Z,17.70
2019-03-03T15:28:37.322Z,17.60
2019-03-03T15:31:05.998Z,17.70
2019-03-03T15:33:34.939Z,17.90
2019-03-03T15:36:03.770Z,17.70
2019-03-03T15:38:32.779Z,18.00
2019-03-03T15:41:01.748Z,18.10
2019-03-03T15:43:30.690Z,18.30
2019-03-03T15:45:59.333Z,18.10
2019-03-03T15:48:29.123Z,17.60
2019-03-03T15:50:57.996Z,17.60
2019-03-03T15:53:26.733Z,17.30
2019-03-03T15:55:55.960Z,17.50
2019-03-03T15:58:25.062Z,17.20
2019-03-03T16:00:54.120Z,17.00
2019-03-03T16:03:23.501Z,16.80
2019-03-03T16:05:52.925Z,16.70
2019-03-03T16:08:22.196Z,16.60
2019-03-03T16:10:52.233Z,16.60
2019-03-03T16:13:22.016Z,16.50
2019-03-03T16:15:52.109Z,16.50
2019-03-03T16:18:21.544Z,16.40
2019-03-03T16:20:54.559Z,16.40
2019-03-03T16:23:24.354Z,16.40
2019-03-03T16:25:55.377Z,16.40
2019-03-03T16:28:25.328Z,16.40
2019-03-03T16:30:55.409Z,16.30
2019-03-03T16:33:25.148Z,16.20
2019-03-03T16:35:54.948Z,16.20
2019-03-03T16:38:24.757Z,16.00
2019-03-03T16:40:54.777Z,15.60
2019-03-03T16:43:24.471Z,15.50
2019-03-03T16:45:55.410Z,15.30
2019-03-03T16:48:25.484Z,15.20
2019-03-03T16:50:55.235Z,15.10
2019-03-03T16:53:25.182Z,15.20
2019-03-03T16:55:54.933Z,15.40
2019-03-03T16:58:24.699Z,15.40
2019-03-03T17:00:54.756Z,15.30
2019-03-03T17:03:24.662Z,15.30
2019-03-03T17:05:55.207Z,15.20
2019-03-03T17:08:25.067Z,15.30
2019-03-03T17:10:55.067Z,15.30
2019-03-03T17:13:24.680Z,15.20
2019-03-03T17:15:59.712Z,15.10
2019-03-03T17:18:29.420Z,15.00
2019-03-03T17:21:00.174Z,14.90
2019-03-03T17:23:36.324Z,14.70
2019-03-03T17:26:09.341Z,14.60
2019-03-03T17:28:40.732Z,14.50
2019-03-03T17:31:12.292Z,14.30
2019-03-03T17:33:41.788Z,14.30
2019-03-03T17:36:11.535Z,14.30
2019-03-03T17:38:41.085Z,14.20
2019-03-03T17:41:13.606Z,14.30
2019-03-03T17:43:43.118Z,14.30
2019-03-03T17:46:12.834Z,14.50
2019-03-03T17:48:42.301Z,14.40
2019-03-03T17:51:13.617Z,14.20
2019-03-03T17:53:43.223Z,13.90
2019-03-03T17:56:12.686Z,13.80
2019-03-03T17:58:42.248Z,13.80
2019-03-03T18:01:11.755Z,13.90
2019-03-03T18:03:41.351Z,13.80
2019-03-03T18:06:14.532Z,13.90
2019-03-03T18:08:45.037Z,13.70
2019-03-03T18:11:14.594Z,13.60
2019-03-03T18:13:43.992Z,13.60
2019-03-03T18:16:13.472Z,13.70
2019-03-03T18:18:42.879Z,13.70
2019-03-03T18:21:12.398Z,13.90
2019-03-03T18:23:41.715Z,13.90
2019-03-03T18:26:12.310Z,14.00
2019-03-03T18:28:41.907Z,13.70
2019-03-03T18:31:12.155Z,13.70
2019-03-03T18:33:45.300Z,13.60
2019-03-03T18:36:16.327Z,13.20
2019-03-03T18:38:45.354Z,13.30
2019-03-03T18:41:14.758Z,13.10
2019-03-03T18:43:47.070Z,13.10
2019-03-03T18:46:16.296Z,13.10
2019-03-03T18:48:45.388Z,13.20
2019-03-03T18:51:15.554Z,13.30
2019-03-03T18:53:44.626Z,13.30
2019-03-03T18:56:14.094Z,13.10
2019-03-03T18:58:43.172Z,13.00
2019-03-03T19:01:12.232Z,12.90
2019-03-03T19:03:41.763Z,13.00
2019-03-03T19:06:11.352Z,12.90
2019-03-03T19:08:40.753Z,13.10
2019-03-03T19:11:10.089Z,13.00
2019-03-03T19:13:40.243Z,12.90
2019-03-03T19:16:09.430Z,12.90
2019-03-03T19:18:38.489Z,13.10
2019-03-03T19:21:07.676Z,12.90
2019-03-03T19:23:36.899Z,12.70
2019-03-03T19:26:06.010Z,12.80
2019-03-03T19:28:35.549Z,12.70
2019-03-03T19:31:05.043Z,12.40
2019-03-03T19:33:41.884Z,12.50
2019-03-03T19:36:11.318Z,12.60
2019-03-03T19:38:42.252Z,12.60
2019-03-03T19:41:11.518Z,12.40
2019-03-03T19:43:40.945Z,12.10
2019-03-03T19:46:10.429Z,12.30
2019-03-03T19:48:39.900Z,12.20
2019-03-03T19:51:09.424Z,12.20
2019-03-03T19:53:40.727Z,12.00
2019-03-03T19:56:10.375Z,12.00
2019-03-03T19:58:39.794Z,12.30
2019-03-03T20:01:09.209Z,12.10
2019-03-03T20:03:39.021Z,12.10
2019-03-03T20:06:08.384Z,11.70
2019-03-03T20:08:40.918Z,11.80
2019-03-03T20:11:11.120Z,11.30
2019-03-03T20:13:40.828Z,11.20
2019-03-03T20:16:11.823Z,11.10
2019-03-03T20:18:41.466Z,11.30
2019-03-03T20:21:10.657Z,11.40
2019-03-03T20:23:39.863Z,11.40
2019-03-03T20:26:09.094Z,11.40
2019-03-03T20:28:38.191Z,11.40
2019-03-03T20:31:07.191Z,11.20
2019-03-03T20:33:36.095Z,11.30
2019-03-03T20:36:05.278Z,11.20
2019-03-03T20:38:33.881Z,11.30
2019-03-03T20:41:10.530Z,11.40
2019-03-03T20:43:41.430Z,11.40
2019-03-03T20:46:10.343Z,11.40
2019-03-03T20:48:39.008Z,11.50
2019-03-03T20:51:07.905Z,11.40
2019-03-03T20:53:36.966Z,11.40
2019-03-03T20:56:05.746Z,11.50
2019-03-03T20:58:34.613Z,11.40
2019-03-03T21:01:03.389Z,11.50
2019-03-03T21:03:32.250Z,11.60
2019-03-03T21:06:02.042Z,11.50
2019-03-03T21:08:30.703Z,11.40
2019-03-03T21:10:59.676Z,11.50
2019-03-03T21:13:28.547Z,11.20
2019-03-03T21:15:58.050Z,11.20
2019-03-03T21:18:26.756Z,11.30
2019-03-03T21:20:55.532Z,11.50
2019-03-03T21:23:24.431Z,11.40
2019-03-03T21:25:53.385Z,11.40
2019-03-03T21:28:22.179Z,11.50
2019-03-03T21:30:50.870Z,11.50
2019-03-03T21:33:19.404Z,11.50
2019-03-03T21:35:48.059Z,11.30
2019-03-03T21:38:16.642Z,11.30
2019-03-03T21:40:45.380Z,11.30
2019-03-03T21:43:13.986Z,11.30
2019-03-03T21:45:42.592Z,10.80
2019-03-03T21:48:11.415Z,10.70
2019-03-03T21:50:40.120Z,10.90
2019-03-03T21:53:08.833Z,11.20
2019-03-03T21:55:37.579Z,11.20
2019-03-03T21:58:06.427Z,10.70
2019-03-03T22:00:36.961Z,10.80
2019-03-03T22:03:05.915Z,10.40
2019-03-03T22:05:34.908Z,10.30
2019-03-03T22:08:03.799Z,9.90
2019-03-03T22:10:33.037Z,9.50
2019-03-03T22:13:12.092Z,9.60
2019-03-03T22:15:40.757Z,9.90
2019-03-03T22:18:09.554Z,9.90
2019-03-03T22:20:38.249Z,9.90
2019-03-03T22:23:07.035Z,10.10
2019-03-03T22:25:35.758Z,10.20
2019-03-03T22:28:04.550Z,10.10
2019-03-03T22:30:33.314Z,10.00
2019-03-03T22:33:01.944Z,10.10
2019-03-03T22:35:30.534Z,10.10
2019-03-03T22:37:59.077Z,10.20
2019-03-03T22:40:27.909Z,10.20
2019-03-03T22:42:56.697Z,10.20
2019-03-03T22:45:25.481Z,10.00
2019-03-03T22:47:54.169Z,9.90
2019-03-03T22:50:23.416Z,9.80
2019-03-03T22:52:52.220Z,9.90
2019-03-03T22:55:20.887Z,9.70
2019-03-03T22:57:49.612Z,9.80
2019-03-03T23:00:45.378Z,9.90
2019-03-03T23:03:19.287Z,9.90
2019-03-03T23:06:06.077Z,9.90
2019-03-03T23:09:17.388Z,10.00
2019-03-03T23:12:21.781Z,9.90
2019-03-03T23:15:05.280Z,9.90
2019-03-03T23:18:05.335Z,9.90
2019-03-03T23:20:52.756Z,9.90
2019-03-03T23:24:27.497Z,9.70
2019-03-03T23:26:56.070Z,9.70
2019-03-03T23:29:24.688Z,9.70
2019-03-03T23:31:53.502Z,9.80
2019-03-03T23:34:22.071Z,9.80
2019-03-03T23:36:50.720Z,9.90
2019-03-03T23:39:20.413Z,9.80
2019-03-03T23:41:49.085Z,9.70
2019-03-03T23:44:17.972Z,9.70
2019-03-03T23:46:46.645Z,9.80
2019-03-03T23:49:15.142Z,9.60
2019-03-03T23:51:43.781Z,9.70
2019-03-03T23:54:12.548Z,9.60
2019-03-03T23:56:41.170Z,9.60
2019-03-03T23:59:09.880Z,9.60
